EKAH/AAR METAR and TAF weather

Enter ICAO airport designator
Station Type Date Time Source
EKAH METAR 2020/08/11 18:20 UTC NOAA

EKAH 111820Z AUTO 12006KT 090V150 9999NDV NCD 23/16 Q1023


Station Type Date Time Source
EKAH Decoded METAR 2020/08/11 18:20 UTC NOAA

Tirstrup, Denmark (EKAH) 56-18N 010-37E 25M
Aug 11, 2020 - 02:20 PM EDT / 2020.08.11 1820 UTC
Wind: from the ESE (120 degrees) at 7 MPH (6 KT) (direction variable):0
Temperature: 73 F (23 C)
Dew Point: 60 F (16 C)
Relative Humidity: 64%
Pressure (altimeter): 30.21 in. Hg (1023 hPa)
ob: EKAH 111820Z AUTO 12006KT 090V150 9999NDV NCD 23/16 Q1023
cycle: 18

Station Type Date Time Source
EKAH TAF 2020/08/11 18:30 UTC NOAA

TAF TAF EKAH 111705Z 1118/1218 13008KT 9999 FEW040

Example: see airport list